createdAt,value
2023-05-20T00:02:04.393Z,12.90
2023-05-20T00:04:58.994Z,12.90
2023-05-20T00:07:42.871Z,12.90
2023-05-20T00:10:12.538Z,12.90
2023-05-20T00:12:40.752Z,12.90
2023-05-20T00:15:24.288Z,13.00
2023-05-20T00:17:54.438Z,12.90
2023-05-20T00:20:22.605Z,13.00
2023-05-20T00:22:52.709Z,13.00
2023-05-20T00:25:20.797Z,12.90
2023-05-20T00:27:50.013Z,12.90
2023-05-20T00:30:18.099Z,13.00
2023-05-20T00:32:52.974Z,13.00
2023-05-20T00:35:21.330Z,13.00
2023-05-20T00:38:03.372Z,13.00
2023-05-20T00:40:46.313Z,12.90
2023-05-20T00:43:14.450Z,13.00
2023-05-20T00:45:42.935Z,13.00
2023-05-20T00:48:12.685Z,13.10
2023-05-20T00:50:41.486Z,13.10
2023-05-20T00:53:12.903Z,13.10
2023-05-20T00:55:43.428Z,13.10
2023-05-20T00:58:21.762Z,13.10
2023-05-20T01:00:50.933Z,13.10
2023-05-20T01:03:20.838Z,13.00
2023-05-20T01:05:50.310Z,13.00
2023-05-20T01:08:27.082Z,13.10
2023-05-20T01:11:04.901Z,13.10
2023-05-20T01:13:56.422Z,13.10
2023-05-20T01:16:26.012Z,13.00
2023-05-20T01:19:04.242Z,13.00
2023-05-20T01:21:38.413Z,13.00
2023-05-20T01:24:27.247Z,13.00
2023-05-20T01:26:58.164Z,13.00
2023-05-20T01:29:36.756Z,13.00
2023-05-20T01:32:18.024Z,13.00
2023-05-20T01:34:48.354Z,13.10
2023-05-20T01:37:17.927Z,13.10
2023-05-20T01:39:56.651Z,13.10
2023-05-20T01:42:31.909Z,13.00
2023-05-20T01:45:01.199Z,13.00
2023-05-20T01:47:29.305Z,13.00
2023-05-20T01:49:58.562Z,12.90
2023-05-20T01:52:26.721Z,12.90
2023-05-20T01:54:56.344Z,12.90
2023-05-20T01:57:25.395Z,13.00
2023-05-20T01:59:53.480Z,12.90
2023-05-20T02:02:45.362Z,12.80
2023-05-20T02:05:13.841Z,12.90
2023-05-20T02:07:42.104Z,12.90
2023-05-20T02:10:21.195Z,12.90
2023-05-20T02:12:53.415Z,13.00
2023-05-20T02:15:21.579Z,12.90
2023-05-20T02:17:59.829Z,12.90
2023-05-20T02:20:28.802Z,12.60
2023-05-20T02:22:56.913Z,12.60
2023-05-20T02:25:27.492Z,12.60
2023-05-20T02:27:55.727Z,12.40
2023-05-20T02:30:23.929Z,12.30
2023-05-20T02:32:52.244Z,12.30
2023-05-20T02:35:27.317Z,12.30
2023-05-20T02:37:55.522Z,12.20
2023-05-20T02:40:24.029Z,12.10
2023-05-20T02:43:07.942Z,12.10
2023-05-20T02:45:42.635Z,12.00
2023-05-20T02:48:12.660Z,11.80
2023-05-20T02:50:42.241Z,11.60
2023-05-20T02:53:16.430Z,11.50
2023-05-20T02:56:13.480Z,11.40
2023-05-20T02:58:50.603Z,11.40
2023-05-20T03:01:30.847Z,11.30
2023-05-20T03:04:06.533Z,11.10
2023-05-20T03:06:44.906Z,11.10
2023-05-20T03:09:34.478Z,11.00
2023-05-20T03:12:16.443Z,10.80
2023-05-20T03:15:01.068Z,10.70
2023-05-20T03:17:36.794Z,10.60
2023-05-20T03:20:33.138Z,10.40
2023-05-20T03:23:12.796Z,10.40
2023-05-20T03:28:31.350Z,10.40
2023-05-20T03:32:08.031Z,10.40
2023-05-20T03:34:57.429Z,10.40
2023-05-20T03:37:34.144Z,10.20
2023-05-20T03:40:08.886Z,10.00
2023-05-20T03:42:47.194Z,10.00
2023-05-20T03:45:28.971Z,9.90
2023-05-20T03:48:01.671Z,9.90
2023-05-20T03:51:02.636Z,9.90
2023-05-20T03:53:32.519Z,9.90
2023-05-20T03:56:14.654Z,9.80
2023-05-20T03:58:52.197Z,9.90
2023-05-20T04:01:32.923Z,9.90
2023-05-20T04:04:11.648Z,9.90
2023-05-20T04:06:59.861Z,9.90
2023-05-20T04:09:39.880Z,9.90
2023-05-20T04:12:11.650Z,9.90
2023-05-20T04:14:56.895Z,10.00
2023-05-20T04:17:40.982Z,10.00
2023-05-20T04:20:13.883Z,10.00
2023-05-20T04:22:50.261Z,10.10
2023-05-20T04:25:29.277Z,10.10
2023-05-20T04:28:04.877Z,10.20
2023-05-20T04:30:45.687Z,10.20
2023-05-20T04:33:22.574Z,10.40
2023-05-20T04:36:03.219Z,10.50
2023-05-20T04:38:47.172Z,10.60
2023-05-20T04:41:16.039Z,10.70
2023-05-20T04:43:44.232Z,10.80
2023-05-20T04:46:12.515Z,10.90
2023-05-20T04:48:40.674Z,11.00
2023-05-20T04:51:08.807Z,11.30
2023-05-20T04:53:37.081Z,11.40
2023-05-20T04:56:13.556Z,11.60
2023-05-20T04:58:42.719Z,11.70
2023-05-20T05:01:10.841Z,11.70
2023-05-20T05:03:47.112Z,11.80
2023-05-20T05:06:16.306Z,11.80
2023-05-20T05:08:44.425Z,11.90
2023-05-20T05:11:13.458Z,11.90
2023-05-20T05:13:41.927Z,12.10
2023-05-20T05:16:13.053Z,12.30
2023-05-20T05:18:41.194Z,12.40
2023-05-20T05:21:10.734Z,12.50
2023-05-20T05:23:38.875Z,12.50
2023-05-20T05:26:07.054Z,12.60
2023-05-20T05:28:35.223Z,12.80
2023-05-20T05:31:07.276Z,13.00
2023-05-20T05:33:35.419Z,13.00
2023-05-20T05:36:04.989Z,13.00
2023-05-20T05:38:34.651Z,13.20
2023-05-20T05:41:11.889Z,13.30
2023-05-20T05:43:41.042Z,13.40
2023-05-20T05:46:10.730Z,13.40
2023-05-20T05:48:39.990Z,13.50
2023-05-20T05:51:08.166Z,13.60
2023-05-20T05:53:39.623Z,13.60
2023-05-20T05:56:09.044Z,13.60
2023-05-20T05:58:38.198Z,13.70
2023-05-20T06:01:12.697Z,13.70
2023-05-20T06:03:40.935Z,13.70
2023-05-20T06:06:09.500Z,13.70
2023-05-20T06:08:39.027Z,13.70
2023-05-20T06:11:07.200Z,13.80
2023-05-20T06:13:37.492Z,13.90
2023-05-20T06:16:07.001Z,13.80
2023-05-20T06:18:35.181Z,13.90
2023-05-20T06:21:10.615Z,13.80
2023-05-20T06:23:45.931Z,13.80
2023-05-20T06:26:17.237Z,13.80
2023-05-20T06:28:45.315Z,13.70
2023-05-20T06:31:13.441Z,13.80
2023-05-20T06:33:41.559Z,13.90
2023-05-20T06:36:09.660Z,13.90
2023-05-20T06:38:39.783Z,14.00
2023-05-20T06:41:11.292Z,14.00
2023-05-20T06:43:40.469Z,14.10
2023-05-20T06:46:08.677Z,14.10
2023-05-20T06:48:36.839Z,14.20
2023-05-20T06:51:07.202Z,14.40
2023-05-20T06:53:44.005Z,14.40
2023-05-20T06:56:13.470Z,14.30
2023-05-20T06:58:42.782Z,14.40
2023-05-20T07:01:12.101Z,14.50
2023-05-20T07:03:40.220Z,14.50
2023-05-20T07:06:08.389Z,14.60
2023-05-20T07:08:36.506Z,14.70
2023-05-20T07:11:05.825Z,14.80
2023-05-20T07:13:36.130Z,14.80
2023-05-20T07:16:04.371Z,14.90
2023-05-20T07:18:32.626Z,15.10
2023-05-20T07:21:10.686Z,15.40
2023-05-20T07:23:38.903Z,15.70
2023-05-20T07:26:08.172Z,15.70
2023-05-20T07:28:44.073Z,15.30
2023-05-20T07:31:12.544Z,15.20
2023-05-20T07:33:42.741Z,15.30
2023-05-20T07:36:11.965Z,15.20
2023-05-20T07:38:45.060Z,15.10
2023-05-20T07:41:21.437Z,15.20
2023-05-20T07:43:51.379Z,15.30
2023-05-20T07:46:21.630Z,15.40
2023-05-20T07:48:49.827Z,15.40
2023-05-20T07:51:18.912Z,15.20
2023-05-20T07:53:47.065Z,15.30
2023-05-20T07:56:17.989Z,15.20
2023-05-20T07:58:55.551Z,15.30
2023-05-20T08:01:26.009Z,15.50
2023-05-20T08:03:56.618Z,15.40
2023-05-20T08:06:28.726Z,15.40
2023-05-20T08:08:59.995Z,15.50
2023-05-20T08:11:39.046Z,15.50
2023-05-20T08:14:16.653Z,15.70
2023-05-20T08:16:45.712Z,15.70
2023-05-20T08:19:13.891Z,15.80
2023-05-20T08:21:49.678Z,15.80
2023-05-20T08:24:17.838Z,16.00
2023-05-20T08:27:01.417Z,16.50
2023-05-20T08:29:43.090Z,16.60
2023-05-20T08:32:19.142Z,16.30
2023-05-20T08:34:49.287Z,16.60
2023-05-20T08:37:17.619Z,16.40
2023-05-20T08:39:48.278Z,16.40
2023-05-20T08:42:21.229Z,16.40
2023-05-20T08:44:52.801Z,16.30
2023-05-20T08:47:22.109Z,16.10
2023-05-20T08:49:50.519Z,16.20
2023-05-20T08:52:22.497Z,16.30
2023-05-20T08:54:52.993Z,17.00
2023-05-20T08:57:23.230Z,16.90
2023-05-20T08:59:53.343Z,17.00
2023-05-20T09:02:21.715Z,16.90
2023-05-20T09:04:50.466Z,17.10
2023-05-20T09:07:29.749Z,16.90
2023-05-20T09:09:58.806Z,17.40
2023-05-20T09:12:27.438Z,17.40
2023-05-20T09:14:58.870Z,17.50
2023-05-20T09:17:29.413Z,17.20
2023-05-20T09:19:58.346Z,17.50
2023-05-20T09:22:30.423Z,17.40
2023-05-20T09:24:59.671Z,17.20
2023-05-20T09:27:28.063Z,17.80
2023-05-20T09:30:00.428Z,17.90
2023-05-20T09:32:29.502Z,17.60
2023-05-20T09:35:01.449Z,17.30
2023-05-20T09:37:31.131Z,17.10
2023-05-20T09:40:07.261Z,17.20
2023-05-20T09:42:41.591Z,17.00
2023-05-20T09:45:12.267Z,16.80
2023-05-20T09:47:42.143Z,17.00
2023-05-20T09:50:11.537Z,16.90
2023-05-20T09:52:41.038Z,17.30
2023-05-20T09:55:11.563Z,17.50
2023-05-20T09:57:40.116Z,17.50
2023-05-20T10:00:13.724Z,17.10
2023-05-20T10:02:44.892Z,17.50
2023-05-20T10:05:18.864Z,17.60
2023-05-20T10:08:24.725Z,17.50
2023-05-20T10:11:00.155Z,17.30
2023-05-20T10:13:55.288Z,17.80
2023-05-20T10:16:35.841Z,18.20
2023-05-20T10:19:17.867Z,18.40
2023-05-20T10:21:58.782Z,18.70
2023-05-20T10:24:33.427Z,18.30
2023-05-20T10:27:04.220Z,18.30
2023-05-20T10:29:44.418Z,18.10
2023-05-20T10:32:25.086Z,18.50
2023-05-20T10:34:55.673Z,18.10
2023-05-20T10:37:30.649Z,18.20
2023-05-20T10:40:09.346Z,18.00
2023-05-20T10:42:40.183Z,17.70
2023-05-20T10:45:09.835Z,17.70
2023-05-20T10:47:55.106Z,17.90
2023-05-20T10:50:32.127Z,18.90
2023-05-20T10:53:15.762Z,19.30
2023-05-20T10:55:53.070Z,20.20
2023-05-20T10:58:22.655Z,21.50
2023-05-20T11:00:53.190Z,20.80
2023-05-20T11:03:24.598Z,19.70
2023-05-20T11:05:53.961Z,19.50
2023-05-20T11:08:29.030Z,19.20
2023-05-20T11:10:59.030Z,18.90
2023-05-20T11:13:28.103Z,18.80
2023-05-20T11:15:56.706Z,18.80
2023-05-20T11:18:30.541Z,19.30
2023-05-20T11:20:59.142Z,18.90
2023-05-20T11:23:29.161Z,18.50
2023-05-20T11:25:58.723Z,18.40
2023-05-20T11:28:35.604Z,18.30
2023-05-20T11:31:06.112Z,18.70
2023-05-20T11:33:35.724Z,18.70
2023-05-20T11:36:08.686Z,18.90
2023-05-20T11:38:43.398Z,19.60
2023-05-20T11:41:11.662Z,20.00
2023-05-20T11:43:41.658Z,19.40
2023-05-20T11:46:11.910Z,19.20
2023-05-20T11:48:43.696Z,18.90
2023-05-20T11:51:12.028Z,18.90
2023-05-20T11:53:42.442Z,19.80
2023-05-20T11:56:10.999Z,20.40
2023-05-20T11:58:39.345Z,21.00
2023-05-20T12:01:21.111Z,21.90
2023-05-20T12:03:52.992Z,21.10
2023-05-20T12:06:22.359Z,21.00
2023-05-20T12:08:51.338Z,20.90
2023-05-20T12:11:19.983Z,20.50
2023-05-20T12:13:48.509Z,19.90
2023-05-20T12:16:18.175Z,20.00
2023-05-20T12:18:46.683Z,20.20
2023-05-20T12:21:23.967Z,19.40
2023-05-20T12:23:57.997Z,19.90
2023-05-20T12:26:26.948Z,20.20
2023-05-20T12:28:55.722Z,21.10
2023-05-20T12:31:24.219Z,21.00
2023-05-20T12:33:52.817Z,21.60
2023-05-20T12:36:22.797Z,20.90
2023-05-20T12:38:51.280Z,21.10
2023-05-20T12:41:19.667Z,21.80
2023-05-20T12:43:48.640Z,21.40
2023-05-20T12:46:17.102Z,21.30
2023-05-20T12:48:45.510Z,21.80
2023-05-20T12:51:14.265Z,22.80
2023-05-20T12:53:44.148Z,23.00
2023-05-20T12:56:12.486Z,24.20
2023-05-20T12:58:40.924Z,23.50
2023-05-20T13:01:09.213Z,22.90
2023-05-20T13:03:37.621Z,22.80
2023-05-20T13:06:06.823Z,22.30
2023-05-20T13:08:35.392Z,21.60
2023-05-20T13:11:06.459Z,21.70
2023-05-20T13:13:34.704Z,21.10
2023-05-20T13:16:03.011Z,21.40
2023-05-20T13:18:31.201Z,21.30
2023-05-20T13:21:00.148Z,21.50
2023-05-20T13:23:28.426Z,21.40
2023-05-20T13:25:56.998Z,21.50
2023-05-20T13:28:26.710Z,21.00
2023-05-20T13:30:55.296Z,21.00
2023-05-20T13:33:24.349Z,21.50
2023-05-20T13:35:52.896Z,22.00
2023-05-20T13:38:21.137Z,21.40
2023-05-20T13:40:49.796Z,21.20
2023-05-20T13:43:18.116Z,21.10
2023-05-20T13:45:48.009Z,21.20
2023-05-20T13:48:16.585Z,21.60
2023-05-20T13:50:44.882Z,21.80
2023-05-20T13:53:14.027Z,22.00
2023-05-20T13:55:42.207Z,22.60
2023-05-20T13:58:10.282Z,23.40
2023-05-20T14:00:39.267Z,24.00
2023-05-20T14:03:16.965Z,24.10
2023-05-20T14:05:48.328Z,23.50
2023-05-20T14:08:16.426Z,23.20
2023-05-20T14:10:44.596Z,23.40
2023-05-20T14:13:12.704Z,23.10
2023-05-20T14:15:41.151Z,23.40
2023-05-20T14:18:09.388Z,24.00
2023-05-20T14:20:39.074Z,23.20
2023-05-20T14:23:07.186Z,23.00
2023-05-20T14:25:35.399Z,22.70
2023-05-20T14:28:03.888Z,22.40
2023-05-20T14:30:49.442Z,22.70
2023-05-20T14:33:19.588Z,22.80
2023-05-20T14:35:49.181Z,22.70
2023-05-20T14:38:18.191Z,23.20
2023-05-20T14:40:49.258Z,23.60
2023-05-20T14:43:17.782Z,24.10
2023-05-20T14:45:46.811Z,24.20
2023-05-20T14:48:16.101Z,23.00
2023-05-20T14:50:44.267Z,22.70
2023-05-20T14:53:13.854Z,23.00
2023-05-20T14:55:42.018Z,23.90
2023-05-20T14:58:10.260Z,23.40
2023-05-20T15:00:38.363Z,22.80
2023-05-20T15:03:07.470Z,22.60
2023-05-20T15:05:35.618Z,22.50
2023-05-20T15:08:03.983Z,22.20
2023-05-20T15:10:41.488Z,22.10
2023-05-20T15:13:09.590Z,22.00
2023-05-20T15:15:37.688Z,22.10
2023-05-20T15:18:05.917Z,22.20
2023-05-20T15:20:34.518Z,22.10
2023-05-20T15:23:02.616Z,22.20
2023-05-20T15:25:30.785Z,22.00
2023-05-20T15:28:00.349Z,21.80
2023-05-20T15:30:28.438Z,21.60
2023-05-20T15:32:57.123Z,21.60
2023-05-20T15:35:25.308Z,21.60
2023-05-20T15:37:53.429Z,21.80
2023-05-20T15:40:34.781Z,21.70
2023-05-20T15:43:04.614Z,21.60
2023-05-20T15:45:32.891Z,21.40
2023-05-20T15:48:01.229Z,21.40
2023-05-20T15:50:30.026Z,21.40
2023-05-20T15:52:58.137Z,21.50
2023-05-20T15:55:26.653Z,22.10
2023-05-20T15:58:02.062Z,22.40
2023-05-20T16:00:31.702Z,22.40
2023-05-20T16:03:00.156Z,22.40
2023-05-20T16:05:28.424Z,22.50
2023-05-20T16:07:57.052Z,22.50
2023-05-20T16:10:26.234Z,22.40
2023-05-20T16:12:55.653Z,22.00
2023-05-20T16:15:23.775Z,21.80
2023-05-20T16:17:53.325Z,21.70
2023-05-20T16:20:21.514Z,21.40
2023-05-20T16:22:50.786Z,21.40
2023-05-20T16:25:18.995Z,21.30
2023-05-20T16:27:47.109Z,21.10
2023-05-20T16:30:21.600Z,21.10
2023-05-20T16:32:49.734Z,20.90
2023-05-20T16:35:19.640Z,20.90
2023-05-20T16:37:47.781Z,20.80
2023-05-20T16:40:15.907Z,20.80
2023-05-20T16:42:44.682Z,20.70
2023-05-20T16:45:13.193Z,20.70
2023-05-20T16:47:41.362Z,20.70
2023-05-20T16:50:11.242Z,20.60
2023-05-20T16:52:41.818Z,20.50
2023-05-20T16:55:10.817Z,20.30
2023-05-20T16:57:38.973Z,20.20
2023-05-20T17:00:09.506Z,20.00
2023-05-20T17:02:37.828Z,19.90
2023-05-20T17:05:06.683Z,19.70
2023-05-20T17:07:35.244Z,19.70
2023-05-20T17:10:05.031Z,19.70
2023-05-20T17:12:33.110Z,19.70
2023-05-20T17:15:01.425Z,19.70
2023-05-20T17:17:29.547Z,19.70
2023-05-20T17:19:57.661Z,19.60
2023-05-20T17:22:26.434Z,19.50
2023-05-20T17:24:54.511Z,19.50
2023-05-20T17:27:24.093Z,19.50
2023-05-20T17:29:52.352Z,19.40
2023-05-20T17:32:20.641Z,19.30
2023-05-20T17:34:49.109Z,19.30
2023-05-20T17:37:17.384Z,19.30
2023-05-20T17:39:45.484Z,19.20
2023-05-20T17:42:13.862Z,19.20
2023-05-20T17:44:49.567Z,19.20
2023-05-20T17:47:17.738Z,19.10
2023-05-20T17:49:46.364Z,19.10
2023-05-20T17:52:14.700Z,19.00
2023-05-20T17:54:46.732Z,19.10
2023-05-20T17:57:15.660Z,19.00
2023-05-20T17:59:45.601Z,19.00
2023-05-20T18:02:15.312Z,18.90
2023-05-20T18:04:43.626Z,18.90
2023-05-20T18:07:17.875Z,18.80
2023-05-20T18:09:46.701Z,18.70
2023-05-20T18:12:22.090Z,18.70
2023-05-20T18:14:50.497Z,18.70
2023-05-20T18:17:21.404Z,18.70
2023-05-20T18:19:49.793Z,18.60
2023-05-20T18:22:18.185Z,18.60
2023-05-20T18:24:46.478Z,18.50
2023-05-20T18:27:14.641Z,18.50
2023-05-20T18:29:42.905Z,18.40
2023-05-20T18:32:14.975Z,18.50
2023-05-20T18:34:46.730Z,18.50
2023-05-20T18:37:14.992Z,18.30
2023-05-20T18:39:43.165Z,18.30
2023-05-20T18:42:12.503Z,18.20
2023-05-20T18:44:42.441Z,18.20
2023-05-20T18:47:12.814Z,18.10
2023-05-20T18:49:43.579Z,18.20
2023-05-20T18:52:20.187Z,18.10
2023-05-20T18:54:48.459Z,18.10
2023-05-20T18:57:17.773Z,18.00
2023-05-20T18:59:48.028Z,17.90
2023-05-20T19:02:17.438Z,17.90
2023-05-20T19:04:46.717Z,17.90
2023-05-20T19:07:24.554Z,17.90
2023-05-20T19:09:54.615Z,17.80
2023-05-20T19:12:29.430Z,17.70
2023-05-20T19:15:00.031Z,17.60
2023-05-20T19:17:30.593Z,17.60
2023-05-20T19:20:14.083Z,17.50
2023-05-20T19:22:44.216Z,17.50
2023-05-20T19:25:12.522Z,17.60
2023-05-20T19:27:41.784Z,17.70
2023-05-20T19:30:11.356Z,17.70
2023-05-20T19:32:43.290Z,17.60
2023-05-20T19:35:12.498Z,17.40
2023-05-20T19:37:43.119Z,17.40
2023-05-20T19:40:12.953Z,17.30
2023-05-20T19:42:58.146Z,17.10
2023-05-20T19:45:37.579Z,17.00
2023-05-20T19:48:07.481Z,16.90
2023-05-20T19:50:36.443Z,16.90
2023-05-20T19:53:11.515Z,16.90
2023-05-20T19:55:49.113Z,16.90
2023-05-20T19:58:18.810Z,16.80
2023-05-20T20:00:49.412Z,16.70
2023-05-20T20:03:18.807Z,16.70
2023-05-20T20:05:52.082Z,16.60
2023-05-20T20:08:29.834Z,16.70
2023-05-20T20:11:01.622Z,16.60
2023-05-20T20:13:32.005Z,16.60
2023-05-20T20:16:00.552Z,16.60
2023-05-20T20:18:29.577Z,16.60
2023-05-20T20:21:05.749Z,16.60
2023-05-20T20:23:37.996Z,16.60
2023-05-20T20:26:18.738Z,16.50
2023-05-20T20:28:54.239Z,16.40
2023-05-20T20:31:32.084Z,16.40
2023-05-20T20:34:00.618Z,16.30
2023-05-20T20:36:32.159Z,16.20
2023-05-20T20:39:04.867Z,16.00
2023-05-20T20:41:33.536Z,16.00
2023-05-20T20:44:03.702Z,16.00
2023-05-20T20:46:41.446Z,16.00
2023-05-20T20:49:13.712Z,15.90
2023-05-20T20:51:42.494Z,15.80
2023-05-20T20:54:21.636Z,15.70
2023-05-20T20:56:52.058Z,15.60
2023-05-20T20:59:22.003Z,15.60
2023-05-20T21:01:52.856Z,15.60
2023-05-20T21:04:21.557Z,15.60
2023-05-20T21:06:49.995Z,15.50
2023-05-20T21:09:18.164Z,15.50
2023-05-20T21:11:57.185Z,15.50
2023-05-20T21:14:25.751Z,15.40
2023-05-20T21:16:54.168Z,15.30
2023-05-20T21:19:25.884Z,15.30
2023-05-20T21:22:02.511Z,15.30
2023-05-20T21:24:30.689Z,15.40
2023-05-20T21:27:00.226Z,15.40
2023-05-20T21:29:31.689Z,15.30
2023-05-20T21:32:10.798Z,15.30
2023-05-20T21:34:39.498Z,15.30
2023-05-20T21:37:08.861Z,15.30
2023-05-20T21:39:39.403Z,15.30
2023-05-20T21:42:09.286Z,15.30
2023-05-20T21:44:45.206Z,15.20
2023-05-20T21:47:17.928Z,15.00
2023-05-20T21:49:52.313Z,14.90
2023-05-20T21:52:20.375Z,14.80
2023-05-20T21:54:48.445Z,14.80
2023-05-20T21:57:17.935Z,14.80
2023-05-20T21:59:46.107Z,14.80
2023-05-20T22:02:14.481Z,14.70
2023-05-20T22:04:55.289Z,14.70
2023-05-20T22:07:24.595Z,14.70
2023-05-20T22:10:05.299Z,14.70
2023-05-20T22:12:35.890Z,14.70
2023-05-20T22:15:09.915Z,14.70
2023-05-20T22:17:48.488Z,14.70
2023-05-20T22:20:21.420Z,14.50
2023-05-20T22:23:04.742Z,14.40
2023-05-20T22:25:45.477Z,14.30
2023-05-20T22:28:23.747Z,14.40
2023-05-20T22:30:52.649Z,14.40
2023-05-20T22:33:22.835Z,14.40
2023-05-20T22:35:51.400Z,14.30
2023-05-20T22:38:22.344Z,14.30
2023-05-20T22:40:52.647Z,14.10
2023-05-20T22:43:23.437Z,14.00
2023-05-20T22:45:53.746Z,14.00
2023-05-20T22:48:28.140Z,13.90
2023-05-20T22:51:03.808Z,14.00
2023-05-20T22:53:41.039Z,13.90
2023-05-20T22:56:09.567Z,13.90
2023-05-20T22:58:40.091Z,14.00
2023-05-20T23:01:08.891Z,14.00
2023-05-20T23:03:37.444Z,14.00
2023-05-20T23:06:12.798Z,14.10
2023-05-20T23:08:42.916Z,14.10
2023-05-20T23:11:13.312Z,14.10
2023-05-20T23:13:44.243Z,14.10
2023-05-20T23:16:12.480Z,14.10
2023-05-20T23:18:41.394Z,13.90
2023-05-20T23:21:15.655Z,14.00
2023-05-20T23:23:45.035Z,13.90
2023-05-20T23:26:24.113Z,14.00
2023-05-20T23:29:00.594Z,14.00
2023-05-20T23:31:40.405Z,14.00
2023-05-20T23:34:15.867Z,14.00
2023-05-20T23:36:45.701Z,14.00
2023-05-20T23:39:22.688Z,14.00
2023-05-20T23:41:59.806Z,14.00
2023-05-20T23:44:39.543Z,13.80
2023-05-20T23:47:13.431Z,13.70
2023-05-20T23:49:54.195Z,13.70
2023-05-20T23:52:36.795Z,13.70
2023-05-20T23:55:17.156Z,13.70
2023-05-20T23:57:45.283Z,13.70
